createdAt,value
2023-01-11T00:00:52.212Z,92.07
2023-01-11T00:01:51.667Z,91.65
2023-01-11T00:02:52.368Z,91.65
2023-01-11T00:03:52.434Z,91.40
2023-01-11T00:04:51.531Z,92.13
2023-01-11T00:05:51.373Z,92.27
2023-01-11T00:06:51.289Z,92.07
2023-01-11T00:07:51.326Z,92.38
2023-01-11T00:08:52.436Z,92.48
2023-01-11T00:09:51.237Z,92.38
2023-01-11T00:10:51.190Z,92.68
2023-01-11T00:11:51.191Z,93.10
2023-01-11T00:12:51.206Z,93.10
2023-01-11T00:13:51.269Z,93.20
2023-01-11T00:14:51.147Z,93.72
2023-01-11T00:15:51.165Z,94.03
2023-01-11T00:16:51.138Z,94.13
2023-01-11T00:17:51.140Z,93.41
2023-01-11T00:18:51.183Z,93.30
2023-01-11T00:19:51.124Z,93.10
2023-01-11T00:20:51.101Z,93.10
2023-01-11T00:21:51.078Z,93.10
2023-01-11T00:22:51.071Z,92.79
2023-01-11T00:23:51.083Z,92.58
2023-01-11T00:24:51.047Z,92.48
2023-01-11T00:25:51.040Z,92.23
2023-01-11T00:26:51.075Z,92.44
2023-01-11T00:27:51.058Z,92.23
2023-01-11T00:28:51.041Z,91.92
2023-01-11T00:29:50.958Z,91.92
2023-01-11T00:30:50.997Z,91.71
2023-01-11T00:31:50.966Z,91.92
2023-01-11T00:32:50.962Z,91.82
2023-01-11T00:33:50.929Z,92.02
2023-01-11T00:34:50.924Z,91.71
2023-01-11T00:35:50.903Z,91.61
2023-01-11T00:36:50.870Z,91.50
2023-01-11T00:37:50.891Z,91.40
2023-01-11T00:38:50.870Z,91.50
2023-01-11T00:39:50.859Z,91.61
2023-01-11T00:40:50.837Z,91.50
2023-01-11T00:41:50.879Z,91.82
2023-01-11T00:42:50.808Z,91.71
2023-01-11T00:43:50.829Z,91.82
2023-01-11T00:44:50.830Z,91.71
2023-01-11T00:45:50.825Z,91.92
2023-01-11T00:46:50.737Z,92.02
2023-01-11T00:47:50.769Z,92.33
2023-01-11T00:48:50.736Z,92.13
2023-01-11T00:49:51.319Z,91.92
2023-01-11T00:50:50.715Z,92.23
2023-01-11T00:51:50.698Z,92.44
2023-01-11T00:52:50.698Z,92.23
2023-01-11T00:53:50.658Z,92.44
2023-01-11T00:54:50.819Z,92.54
2023-01-11T00:55:50.742Z,92.23
2023-01-11T00:56:50.641Z,92.23
2023-01-11T00:57:50.632Z,92.13
2023-01-11T00:58:50.623Z,91.92
2023-01-11T00:59:50.613Z,92.23
2023-01-11T01:00:50.643Z,92.13
2023-01-11T01:01:50.581Z,92.13
2023-01-11T01:02:50.612Z,92.02
2023-01-11T01:03:50.582Z,91.82
2023-01-11T01:04:51.733Z,91.77
2023-01-11T01:05:50.692Z,91.88
2023-01-11T01:06:50.551Z,91.67
2023-01-11T01:07:50.502Z,91.67
2023-01-11T01:08:50.772Z,91.77
2023-01-11T01:09:50.662Z,91.77
2023-01-11T01:10:51.635Z,91.56
2023-01-11T01:11:50.479Z,91.46
2023-01-11T01:12:50.436Z,91.36
2023-01-11T01:13:50.418Z,91.67
2023-01-11T01:14:50.398Z,91.67
2023-01-11T01:15:50.470Z,91.36
2023-01-11T01:16:50.671Z,91.16
2023-01-11T01:17:50.352Z,91.16
2023-01-11T01:18:51.380Z,91.05
2023-01-11T01:19:50.365Z,90.70
2023-01-11T01:20:50.454Z,91.05
2023-01-11T01:21:50.312Z,91.46
2023-01-11T01:22:50.297Z,91.26
2023-01-11T01:23:50.274Z,91.26
2023-01-11T01:24:50.292Z,91.46
2023-01-11T01:25:50.324Z,91.36
2023-01-11T01:26:50.268Z,91.26
2023-01-11T01:27:50.218Z,91.46
2023-01-11T01:28:50.209Z,91.56
2023-01-11T01:29:50.253Z,91.26
2023-01-11T01:30:50.541Z,91.36
2023-01-11T01:31:50.245Z,91.26
2023-01-11T01:32:50.206Z,91.01
2023-01-11T01:33:50.135Z,91.22
2023-01-11T01:34:50.207Z,91.22
2023-01-11T01:35:50.122Z,91.01
2023-01-11T01:36:50.180Z,90.80
2023-01-11T01:37:50.137Z,90.70
2023-01-11T01:38:50.087Z,90.59
2023-01-11T01:39:50.067Z,90.80
2023-01-11T01:40:50.087Z,90.39
2023-01-11T01:41:50.119Z,90.49
2023-01-11T01:42:50.033Z,90.39
2023-01-11T01:43:50.070Z,90.59
2023-01-11T01:44:50.582Z,90.91
2023-01-11T01:45:50.155Z,90.91
2023-01-11T01:46:50.025Z,90.70
2023-01-11T01:47:50.003Z,90.49
2023-01-11T01:48:49.973Z,90.91
2023-01-11T01:49:49.957Z,90.25
2023-01-11T01:50:50.875Z,90.14
2023-01-11T01:51:49.927Z,90.25
2023-01-11T01:52:49.947Z,90.45
2023-01-11T01:53:49.905Z,90.66
2023-01-11T01:54:49.868Z,90.25
2023-01-11T01:55:50.507Z,90.35
2023-01-11T01:56:49.857Z,90.35
2023-01-11T01:57:50.708Z,90.25
2023-01-11T01:58:49.842Z,89.94
2023-01-11T01:59:49.833Z,90.04
2023-01-11T02:00:49.825Z,89.94
2023-01-11T02:01:49.918Z,90.35
2023-01-11T02:02:49.859Z,90.55
2023-01-11T02:03:49.815Z,90.35
2023-01-11T02:04:49.760Z,90.35
2023-01-11T02:05:49.827Z,90.55
2023-01-11T02:06:49.753Z,90.45
2023-01-11T02:07:49.744Z,90.35
2023-01-11T02:08:49.714Z,90.66
2023-01-11T02:09:49.696Z,90.55
2023-01-11T02:10:51.120Z,90.35
2023-01-11T02:11:50.353Z,90.45
2023-01-11T02:12:49.723Z,90.66
2023-01-11T02:13:49.680Z,90.45
2023-01-11T02:14:49.611Z,90.66
2023-01-11T02:15:49.625Z,90.55
2023-01-11T02:16:49.631Z,90.35
2023-01-11T02:17:49.570Z,90.55
2023-01-11T02:18:49.608Z,90.45
2023-01-11T02:19:49.594Z,90.35
2023-01-11T02:20:49.706Z,90.20
2023-01-11T02:21:49.554Z,90.31
2023-01-11T02:22:50.366Z,90.20
2023-01-11T02:23:49.561Z,90.41
2023-01-11T02:24:50.223Z,90.61
2023-01-11T02:25:49.464Z,90.76
2023-01-11T02:26:49.485Z,90.97
2023-01-11T02:27:49.459Z,90.76
2023-01-11T02:28:49.476Z,90.45
2023-01-11T02:29:49.418Z,90.76
2023-01-11T02:30:49.395Z,90.66
2023-01-11T02:31:49.405Z,90.82
2023-01-11T02:32:49.397Z,90.66
2023-01-11T02:33:50.323Z,90.76
2023-01-11T02:34:50.339Z,90.86
2023-01-11T02:35:49.443Z,90.61
2023-01-11T02:36:49.388Z,90.82
2023-01-11T02:37:49.626Z,90.82
2023-01-11T02:38:49.315Z,90.97
2023-01-11T02:39:49.322Z,90.82
2023-01-11T02:40:49.296Z,90.72
2023-01-11T02:41:49.295Z,90.61
2023-01-11T02:42:49.270Z,90.82
2023-01-11T02:43:49.668Z,90.72
2023-01-11T02:44:49.278Z,90.61
2023-01-11T02:45:50.260Z,90.82
2023-01-11T02:46:49.283Z,91.03
2023-01-11T02:47:49.167Z,90.92
2023-01-11T02:48:50.426Z,90.92
2023-01-11T02:49:49.380Z,90.61
2023-01-11T02:50:49.606Z,90.82
2023-01-11T02:51:49.156Z,90.61
2023-01-11T02:52:49.177Z,90.82
2023-01-11T02:53:49.126Z,90.72
2023-01-11T02:54:50.357Z,90.61
2023-01-11T02:55:49.117Z,90.86
2023-01-11T02:56:49.080Z,90.97
2023-01-11T02:57:49.335Z,90.86
2023-01-11T02:58:49.080Z,90.97
2023-01-11T02:59:49.121Z,90.76
2023-01-11T03:00:49.168Z,90.97
2023-01-11T03:01:49.245Z,91.17
2023-01-11T03:02:49.323Z,91.28
2023-01-11T03:03:48.961Z,91.28
2023-01-11T03:04:48.956Z,91.48
2023-01-11T03:05:48.939Z,91.38
2023-01-11T03:06:48.996Z,91.48
2023-01-11T03:07:48.938Z,91.79
2023-01-11T03:08:48.891Z,91.48
2023-01-11T03:09:49.940Z,91.69
2023-01-11T03:10:48.935Z,91.79
2023-01-11T03:11:48.952Z,91.89
2023-01-11T03:12:48.871Z,92.00
2023-01-11T03:13:50.078Z,92.00
2023-01-11T03:14:48.854Z,91.89
2023-01-11T03:15:48.853Z,91.89
2023-01-11T03:16:48.812Z,92.00
2023-01-11T03:17:48.808Z,92.00
2023-01-11T03:18:49.595Z,92.10
2023-01-11T03:19:50.002Z,92.21
2023-01-11T03:20:48.954Z,92.21
2023-01-11T03:21:48.868Z,92.10
2023-01-11T03:22:48.734Z,92.00
2023-01-11T03:23:48.722Z,92.00
2023-01-11T03:24:48.990Z,92.00
2023-01-11T03:25:48.685Z,91.89
2023-01-11T03:26:49.844Z,91.79
2023-01-11T03:27:48.672Z,92.00
2023-01-11T03:28:49.595Z,92.00
2023-01-11T03:29:48.616Z,92.10
2023-01-11T03:30:48.937Z,92.00
2023-01-11T03:31:48.629Z,92.00
2023-01-11T03:32:48.969Z,92.00
2023-01-11T03:33:48.600Z,92.00
2023-01-11T03:34:48.643Z,92.10
2023-01-11T03:35:48.621Z,92.10
2023-01-11T03:36:48.541Z,92.21
2023-01-11T03:37:48.566Z,92.00
2023-01-11T03:38:48.495Z,91.79
2023-01-11T03:39:48.602Z,91.75
2023-01-11T03:40:48.475Z,92.06
2023-01-11T03:41:49.424Z,92.00
2023-01-11T03:42:49.457Z,91.96
2023-01-11T03:43:48.466Z,91.96
2023-01-11T03:44:48.459Z,92.06
2023-01-11T03:45:48.405Z,92.06
2023-01-11T03:46:48.528Z,91.85
2023-01-11T03:47:48.405Z,91.64
2023-01-11T03:48:48.414Z,91.64
2023-01-11T03:49:48.386Z,91.64
2023-01-11T03:50:48.402Z,91.64
2023-01-11T03:51:48.349Z,91.85
2023-01-11T03:52:48.330Z,91.75
2023-01-11T03:53:49.317Z,91.75
2023-01-11T03:54:48.380Z,91.64
2023-01-11T03:55:48.313Z,91.75
2023-01-11T03:56:48.258Z,91.54
2023-01-11T03:57:48.281Z,91.30
2023-01-11T03:58:48.675Z,91.81
2023-01-11T03:59:48.247Z,91.64
2023-01-11T04:00:48.301Z,91.71
2023-01-11T04:01:48.187Z,91.81
2023-01-11T04:02:48.417Z,91.60
2023-01-11T04:03:48.869Z,91.81
2023-01-11T04:04:48.535Z,91.81
2023-01-11T04:05:48.291Z,91.71
2023-01-11T04:06:48.237Z,92.02
2023-01-11T04:07:48.363Z,91.81
2023-01-11T04:08:48.100Z,91.81
2023-01-11T04:09:48.119Z,91.60
2023-01-11T04:10:48.120Z,91.71
2023-01-11T04:11:48.104Z,91.71
2023-01-11T04:12:48.381Z,91.71
2023-01-11T04:13:48.909Z,91.71
2023-01-11T04:14:48.186Z,91.91
2023-01-11T04:15:48.030Z,91.81
2023-01-11T04:16:48.017Z,91.91
2023-01-11T04:17:48.080Z,91.71
2023-01-11T04:18:48.161Z,91.71
2023-01-11T04:19:48.004Z,91.40
2023-01-11T04:20:48.764Z,91.30
2023-01-11T04:21:47.973Z,91.40
2023-01-11T04:22:49.071Z,91.25
2023-01-11T04:23:47.925Z,91.36
2023-01-11T04:24:47.944Z,91.36
2023-01-11T04:25:47.901Z,91.36
2023-01-11T04:26:47.927Z,91.56
2023-01-11T04:27:47.869Z,91.15
2023-01-11T04:28:48.107Z,91.36
2023-01-11T04:29:47.819Z,91.66
2023-01-11T04:30:47.840Z,91.56
2023-01-11T04:31:47.906Z,91.56
2023-01-11T04:32:47.876Z,91.97
2023-01-11T04:33:48.302Z,91.87
2023-01-11T04:34:47.818Z,92.08
2023-01-11T04:35:47.778Z,92.38
2023-01-11T04:36:47.765Z,92.38
2023-01-11T04:37:48.711Z,92.29
2023-01-11T04:38:47.904Z,92.29
2023-01-11T04:39:47.713Z,92.08
2023-01-11T04:40:47.701Z,91.97
2023-01-11T04:41:47.708Z,92.18
2023-01-11T04:42:48.669Z,92.08
2023-01-11T04:43:47.645Z,92.08
2023-01-11T04:44:47.695Z,92.18
2023-01-11T04:45:48.520Z,91.87
2023-01-11T04:46:47.668Z,91.97
2023-01-11T04:47:47.623Z,91.56
2023-01-11T04:48:47.624Z,91.77
2023-01-11T04:49:47.623Z,92.18
2023-01-11T04:50:47.578Z,91.97
2023-01-11T04:51:47.583Z,91.87
2023-01-11T04:52:47.528Z,91.87
2023-01-11T04:53:47.515Z,91.42
2023-01-11T04:54:47.499Z,91.42
2023-01-11T04:55:47.589Z,91.72
2023-01-11T04:56:47.623Z,91.83
2023-01-11T04:57:47.606Z,91.83
2023-01-11T04:58:47.551Z,91.83
2023-01-11T04:59:47.493Z,91.83
2023-01-11T05:00:47.459Z,91.62
2023-01-11T05:01:47.433Z,91.52
2023-01-11T05:02:47.417Z,91.52
2023-01-11T05:03:47.510Z,91.31
2023-01-11T05:04:47.483Z,91.42
2023-01-11T05:05:47.409Z,91.52
2023-01-11T05:06:47.451Z,91.31
2023-01-11T05:07:47.448Z,91.21
2023-01-11T05:08:48.251Z,91.21
2023-01-11T05:09:47.307Z,91.21
2023-01-11T05:10:47.361Z,91.17
2023-01-11T05:11:47.419Z,90.96
2023-01-11T05:12:47.320Z,91.27
2023-01-11T05:13:47.294Z,91.17
2023-01-11T05:14:47.261Z,91.27
2023-01-11T05:15:47.366Z,90.96
2023-01-11T05:16:47.318Z,91.17
2023-01-11T05:17:47.407Z,91.06
2023-01-11T05:18:47.250Z,91.47
2023-01-11T05:19:47.288Z,91.27
2023-01-11T05:20:47.766Z,91.27
2023-01-11T05:21:48.159Z,91.06
2023-01-11T05:22:47.681Z,91.06
2023-01-11T05:23:47.373Z,90.86
2023-01-11T05:24:47.133Z,90.96
2023-01-11T05:25:47.461Z,90.86
2023-01-11T05:26:47.897Z,90.66
2023-01-11T05:27:47.221Z,90.86
2023-01-11T05:28:47.241Z,90.96
2023-01-11T05:29:48.279Z,90.75
2023-01-11T05:30:47.035Z,90.55
2023-01-11T05:31:47.101Z,90.61
2023-01-11T05:32:47.334Z,90.30
2023-01-11T05:33:46.996Z,90.30
2023-01-11T05:34:47.075Z,90.30
2023-01-11T05:35:46.984Z,90.61
2023-01-11T05:36:47.023Z,90.51
2023-01-11T05:37:46.970Z,90.72
2023-01-11T05:38:46.994Z,90.61
2023-01-11T05:39:47.823Z,90.61
2023-01-11T05:40:47.452Z,90.72
2023-01-11T05:41:46.994Z,90.61
2023-01-11T05:42:46.895Z,90.61
2023-01-11T05:43:46.865Z,90.30
2023-01-11T05:44:47.899Z,90.20
2023-01-11T05:45:46.967Z,90.72
2023-01-11T05:46:47.012Z,90.81
2023-01-11T05:47:47.014Z,90.41
2023-01-11T05:48:46.810Z,90.92
2023-01-11T05:49:46.796Z,90.92
2023-01-11T05:50:46.841Z,90.92
2023-01-11T05:51:47.698Z,91.02
2023-01-11T05:52:47.606Z,91.02
2023-01-11T05:53:46.838Z,91.13
2023-01-11T05:54:46.769Z,91.23
2023-01-11T05:55:46.815Z,91.13
2023-01-11T05:56:48.171Z,90.92
2023-01-11T05:57:47.629Z,91.13
2023-01-11T05:58:46.678Z,91.33
2023-01-11T05:59:46.736Z,91.13
2023-01-11T06:00:46.730Z,90.92
2023-01-11T06:01:46.698Z,91.02
2023-01-11T06:02:46.737Z,90.78
2023-01-11T06:03:46.644Z,90.88
2023-01-11T06:04:46.591Z,91.13
2023-01-11T06:05:46.635Z,91.13
2023-01-11T06:06:46.595Z,90.98
2023-01-11T06:07:46.708Z,90.88
2023-01-11T06:08:46.542Z,91.08
2023-01-11T06:09:46.531Z,91.08
2023-01-11T06:10:46.515Z,91.19
2023-01-11T06:11:46.547Z,90.98
2023-01-11T06:12:46.593Z,91.08
2023-01-11T06:13:46.848Z,91.08
2023-01-11T06:14:46.581Z,91.19
2023-01-11T06:15:47.448Z,91.29
2023-01-11T06:16:47.443Z,91.29
2023-01-11T06:17:46.449Z,91.08
2023-01-11T06:18:46.449Z,90.88
2023-01-11T06:19:46.391Z,91.08
2023-01-11T06:20:46.417Z,91.19
2023-01-11T06:21:46.372Z,91.60
2023-01-11T06:22:46.380Z,91.70
2023-01-11T06:23:46.359Z,91.49
2023-01-11T06:24:46.332Z,91.91
2023-01-11T06:25:47.509Z,92.11
2023-01-11T06:26:46.392Z,91.70
2023-01-11T06:27:46.318Z,91.91
2023-01-11T06:28:46.290Z,91.70
2023-01-11T06:29:46.338Z,92.16
2023-01-11T06:30:47.543Z,92.25
2023-01-11T06:31:46.382Z,92.25
2023-01-11T06:32:46.235Z,92.57
2023-01-11T06:33:46.271Z,92.36
2023-01-11T06:34:46.187Z,92.36
2023-01-11T06:35:47.061Z,92.57
2023-01-11T06:36:46.184Z,92.46
2023-01-11T06:37:46.200Z,92.25
2023-01-11T06:38:46.207Z,92.46
2023-01-11T06:39:46.136Z,92.36
2023-01-11T06:40:46.123Z,92.67
2023-01-11T06:41:46.171Z,92.46
2023-01-11T06:42:46.084Z,92.87
2023-01-11T06:43:46.565Z,92.77
2023-01-11T06:44:46.077Z,92.77
2023-01-11T06:45:46.184Z,92.87
2023-01-11T06:46:46.144Z,92.67
2023-01-11T06:47:46.066Z,92.97
2023-01-11T06:48:46.156Z,93.08
2023-01-11T06:49:46.008Z,92.97
2023-01-11T06:50:45.985Z,93.18
2023-01-11T06:51:46.011Z,93.18
2023-01-11T06:52:46.033Z,93.39
2023-01-11T06:53:45.946Z,93.39
2023-01-11T06:54:45.968Z,93.29
2023-01-11T06:55:45.957Z,93.29
2023-01-11T06:56:45.929Z,93.59
2023-01-11T06:57:47.363Z,93.59
2023-01-11T06:58:46.977Z,93.90
2023-01-11T06:59:45.885Z,94.11
2023-01-11T07:00:45.976Z,94.31
2023-01-11T07:01:45.934Z,94.31
2023-01-11T07:02:45.861Z,94.62
2023-01-11T07:03:46.815Z,94.62
2023-01-11T07:04:45.871Z,94.83
2023-01-11T07:05:45.808Z,94.93
2023-01-11T07:06:45.860Z,95.14
2023-01-11T07:07:45.832Z,95.24
2023-01-11T07:08:45.828Z,95.24
2023-01-11T07:09:45.759Z,95.65
2023-01-11T07:10:45.768Z,95.55
2023-01-11T07:11:45.757Z,95.86
2023-01-11T07:12:45.741Z,96.21
2023-01-11T07:13:46.684Z,96.31
2023-01-11T07:14:45.683Z,96.42
2023-01-11T07:15:46.030Z,96.52
2023-01-11T07:16:45.694Z,96.62
2023-01-11T07:17:45.664Z,96.62
2023-01-11T07:18:46.673Z,96.62
2023-01-11T07:19:45.623Z,96.62
2023-01-11T07:20:45.640Z,96.52
2023-01-11T07:21:45.611Z,96.62
2023-01-11T07:22:45.584Z,96.72
2023-01-11T07:23:45.643Z,96.83
2023-01-11T07:24:47.654Z,96.72
2023-01-11T07:25:45.564Z,96.83
2023-01-11T07:26:45.620Z,96.93
2023-01-11T07:27:45.531Z,96.93
2023-01-11T07:28:45.519Z,97.03
2023-01-11T07:29:45.505Z,97.03
2023-01-11T07:30:57.737Z,97.14
2023-01-11T07:31:46.543Z,97.14
2023-01-11T07:32:45.731Z,97.14
2023-01-11T07:33:45.491Z,97.14
2023-01-11T07:34:45.483Z,97.14
2023-01-11T07:35:45.441Z,96.99
2023-01-11T07:36:45.452Z,96.89
2023-01-11T07:37:45.399Z,96.89
2023-01-11T07:38:45.449Z,96.78
2023-01-11T07:39:45.389Z,96.58
2023-01-11T07:40:45.420Z,96.47
2023-01-11T07:41:46.355Z,96.68
2023-01-11T07:42:45.295Z,96.58
2023-01-11T07:43:45.309Z,96.68
2023-01-11T07:44:45.309Z,96.68
2023-01-11T07:45:46.700Z,96.47
2023-01-11T07:46:45.883Z,96.58
2023-01-11T07:47:46.288Z,96.58
2023-01-11T07:48:45.575Z,96.47
2023-01-11T07:49:45.341Z,96.47
2023-01-11T07:50:45.486Z,96.58
2023-01-11T07:51:45.283Z,96.58
2023-01-11T07:52:45.204Z,96.47
2023-01-11T07:53:45.217Z,96.37
2023-01-11T07:54:45.159Z,96.27
2023-01-11T07:55:45.182Z,96.27
2023-01-11T07:56:45.188Z,96.17
2023-01-11T07:57:45.120Z,96.22
2023-01-11T07:58:45.134Z,96.02
2023-01-11T07:59:45.391Z,95.92
2023-01-11T08:00:45.150Z,95.92
2023-01-11T08:01:45.163Z,95.92
2023-01-11T08:02:45.163Z,95.81
2023-01-11T08:03:45.206Z,95.81
2023-01-11T08:04:46.216Z,95.81
2023-01-11T08:05:45.016Z,95.92
2023-01-11T08:06:45.000Z,95.50
2023-01-11T08:07:44.994Z,95.50
2023-01-11T08:08:44.979Z,95.40
2023-01-11T08:09:44.985Z,95.40
2023-01-11T08:10:44.973Z,95.20
2023-01-11T08:11:44.943Z,95.40
2023-01-11T08:12:44.949Z,95.46
2023-01-11T08:13:44.925Z,95.05
2023-01-11T08:14:44.966Z,95.25
2023-01-11T08:15:44.969Z,95.15
2023-01-11T08:16:44.900Z,95.05
2023-01-11T08:17:45.982Z,94.95
2023-01-11T08:18:45.873Z,95.05
2023-01-11T08:19:44.899Z,94.95
2023-01-11T08:20:44.881Z,94.74
2023-01-11T08:21:44.847Z,94.74
2023-01-11T08:22:45.776Z,94.84
2023-01-11T08:23:44.784Z,94.74
2023-01-11T08:24:44.772Z,94.95
2023-01-11T08:25:44.839Z,95.05
2023-01-11T08:26:44.820Z,94.84
2023-01-11T08:27:45.087Z,94.95
2023-01-11T08:28:44.747Z,95.05
2023-01-11T08:29:44.767Z,95.05
2023-01-11T08:30:44.747Z,94.95
2023-01-11T08:31:44.694Z,94.95
2023-01-11T08:32:44.687Z,95.15
2023-01-11T08:33:44.703Z,94.84
2023-01-11T08:34:44.627Z,94.64
2023-01-11T08:35:44.674Z,94.70
2023-01-11T08:36:44.624Z,94.80
2023-01-11T08:37:44.609Z,94.90
2023-01-11T08:38:44.655Z,94.90
2023-01-11T08:39:44.597Z,94.80
2023-01-11T08:40:44.576Z,94.90
2023-01-11T08:41:44.607Z,95.01
2023-01-11T08:42:45.160Z,95.01
2023-01-11T08:43:44.573Z,95.01
2023-01-11T08:44:44.548Z,95.10
2023-01-11T08:45:44.954Z,95.10
2023-01-11T08:46:44.526Z,95.21
2023-01-11T08:47:44.479Z,95.10
2023-01-11T08:48:44.472Z,95.01
2023-01-11T08:49:44.454Z,95.21
2023-01-11T08:50:45.385Z,95.31
2023-01-11T08:51:44.470Z,95.42
2023-01-11T08:52:44.434Z,95.52
2023-01-11T08:53:44.397Z,95.21
2023-01-11T08:54:44.435Z,95.31
2023-01-11T08:55:44.681Z,95.62
2023-01-11T08:56:44.432Z,95.62
2023-01-11T08:57:44.697Z,95.42
2023-01-11T08:58:44.380Z,95.62
2023-01-11T08:59:44.489Z,95.83
2023-01-11T09:00:44.445Z,95.83
2023-01-11T09:01:44.324Z,95.93
2023-01-11T09:02:44.344Z,96.14
2023-01-11T09:03:45.144Z,96.55
2023-01-11T09:04:44.330Z,96.44
2023-01-11T09:05:44.261Z,96.44
2023-01-11T09:06:44.213Z,96.75
2023-01-11T09:07:44.209Z,96.75
2023-01-11T09:08:44.200Z,96.85
2023-01-11T09:09:44.200Z,96.95
2023-01-11T09:10:44.171Z,96.75
2023-01-11T09:11:44.154Z,96.85
2023-01-11T09:12:44.227Z,96.95
2023-01-11T09:13:44.144Z,97.16
2023-01-11T09:14:44.132Z,97.16
2023-01-11T09:15:44.142Z,97.16
2023-01-11T09:16:44.114Z,97.16
2023-01-11T09:17:44.057Z,97.06
2023-01-11T09:18:44.071Z,97.37
2023-01-11T09:19:44.081Z,97.16
2023-01-11T09:20:44.046Z,96.95
2023-01-11T09:21:44.054Z,97.06
2023-01-11T09:22:44.020Z,96.85
2023-01-11T09:23:45.272Z,96.85
2023-01-11T09:24:44.028Z,97.06
2023-01-11T09:25:44.066Z,96.75
2023-01-11T09:26:44.008Z,96.65
2023-01-11T09:27:43.977Z,96.55
2023-01-11T09:28:43.974Z,96.60
2023-01-11T09:29:43.929Z,96.40
2023-01-11T09:30:43.904Z,96.60
2023-01-11T09:31:43.940Z,96.40
2023-01-11T09:32:43.907Z,96.30
2023-01-11T09:33:43.866Z,96.40
2023-01-11T09:34:45.356Z,96.30
2023-01-11T09:35:44.054Z,96.40
2023-01-11T09:36:43.887Z,96.40
2023-01-11T09:37:43.849Z,96.40
2023-01-11T09:38:43.821Z,96.40
2023-01-11T09:39:43.799Z,96.30
2023-01-11T09:40:43.801Z,96.09
2023-01-11T09:41:43.800Z,96.19
2023-01-11T09:42:43.756Z,96.30
2023-01-11T09:43:43.798Z,95.98
2023-01-11T09:44:43.726Z,96.09
2023-01-11T09:45:43.720Z,95.98
2023-01-11T09:46:43.762Z,95.98
2023-01-11T09:47:43.690Z,95.78
2023-01-11T09:48:43.699Z,95.74
2023-01-11T09:49:43.711Z,95.74
2023-01-11T09:50:43.641Z,95.84
2023-01-11T09:51:43.668Z,95.64
2023-01-11T09:52:43.621Z,95.64
2023-01-11T09:53:43.647Z,95.53
2023-01-11T09:54:43.631Z,95.43
2023-01-11T09:55:43.581Z,95.53
2023-01-11T09:56:43.600Z,95.53
2023-01-11T09:57:43.656Z,95.23
2023-01-11T09:58:43.544Z,95.02
2023-01-11T09:59:43.554Z,94.92
2023-01-11T10:00:43.559Z,94.92
2023-01-11T10:01:43.562Z,94.71
2023-01-11T10:02:43.484Z,94.71
2023-01-11T10:03:43.474Z,94.46
2023-01-11T10:04:43.500Z,94.67
2023-01-11T10:05:43.462Z,94.98
2023-01-11T10:06:43.462Z,94.87
2023-01-11T10:07:43.641Z,94.77
2023-01-11T10:18:25.382Z,94.32
2023-01-11T10:18:28.981Z,93.90
2023-01-11T10:18:31.012Z,94.32
2023-01-11T10:18:31.448Z,94.52
2023-01-11T10:19:10.419Z,93.90
2023-01-11T10:19:44.352Z,93.66
2023-01-11T10:20:43.274Z,93.76
2023-01-11T10:21:43.356Z,93.86
2023-01-11T10:22:43.303Z,93.39
2023-01-11T10:23:43.224Z,93.80
2023-01-11T10:24:43.235Z,93.60
2023-01-11T10:25:43.207Z,93.70
2023-01-11T10:26:43.241Z,93.80
2023-01-11T10:27:43.501Z,94.01
2023-01-11T10:28:43.263Z,94.52
2023-01-11T10:29:43.141Z,94.52
2023-01-11T10:30:43.117Z,94.05
2023-01-11T10:31:43.227Z,93.95
2023-01-11T10:32:43.159Z,93.95
2023-01-11T10:33:43.064Z,94.36
2023-01-11T10:34:43.091Z,94.15
2023-01-11T10:35:43.058Z,94.05
2023-01-11T10:36:43.057Z,94.26
2023-01-11T10:37:43.167Z,94.46
2023-01-11T10:38:43.064Z,94.56
2023-01-11T10:39:42.998Z,94.56
2023-01-11T10:40:43.062Z,94.56
2023-01-11T10:41:43.271Z,94.67
2023-01-11T10:42:42.983Z,94.56
2023-01-11T10:43:42.988Z,94.56
2023-01-11T10:44:42.925Z,94.56
2023-01-11T10:45:43.005Z,94.67
2023-01-11T10:46:42.934Z,94.87
2023-01-11T10:47:42.954Z,94.87
2023-01-11T10:48:43.003Z,94.73
2023-01-11T10:49:43.679Z,94.42
2023-01-11T10:50:42.878Z,94.42
2023-01-11T10:51:42.835Z,94.73
2023-01-11T10:52:42.914Z,94.42
2023-01-11T10:53:42.900Z,94.52
2023-01-11T10:54:46.135Z,94.42
2023-01-11T10:55:42.791Z,94.52
2023-01-11T10:57:02.846Z,94.62
2023-01-11T10:58:01.390Z,94.73
2023-01-11T10:58:43.795Z,94.83
2023-01-11T10:59:42.763Z,95.03
2023-01-11T11:00:42.753Z,94.73
2023-01-11T11:01:42.753Z,94.62
2023-01-11T11:02:42.710Z,95.03
2023-01-11T11:03:42.710Z,95.03
2023-01-11T11:04:42.678Z,94.93
2023-01-11T11:05:42.694Z,95.03
2023-01-11T11:06:42.678Z,94.93
2023-01-11T11:07:42.675Z,95.03
2023-01-11T11:08:42.653Z,95.24
2023-01-11T11:09:42.685Z,95.03
2023-01-11T11:10:42.649Z,94.93
2023-01-11T11:11:42.623Z,95.03
2023-01-11T11:12:42.585Z,95.24
2023-01-11T11:13:43.525Z,95.14
2023-01-11T11:14:42.577Z,95.24
2023-01-11T11:15:42.782Z,95.65
2023-01-11T11:16:42.557Z,95.75
2023-01-11T11:17:42.513Z,95.54
2023-01-11T11:18:42.495Z,95.44
2023-01-11T11:19:42.787Z,95.24
2023-01-11T11:20:42.482Z,95.34
2023-01-11T11:21:42.498Z,95.34
2023-01-11T11:22:42.452Z,95.44
2023-01-11T11:23:42.410Z,95.54
2023-01-11T11:24:42.510Z,95.44
2023-01-11T11:25:43.445Z,95.34
2023-01-11T11:26:42.386Z,95.03
2023-01-11T11:27:42.349Z,95.24
2023-01-11T11:28:43.511Z,95.14
2023-01-11T11:29:42.328Z,95.34
2023-01-11T11:30:42.347Z,95.44
2023-01-11T11:31:42.904Z,95.03
2023-01-11T11:32:42.279Z,95.03
2023-01-11T11:33:42.298Z,95.03
2023-01-11T11:34:42.319Z,95.14
2023-01-11T11:35:42.299Z,95.24
2023-01-11T11:36:42.260Z,95.44
2023-01-11T11:37:42.243Z,95.14
2023-01-11T11:38:42.204Z,95.03
2023-01-11T11:39:42.210Z,95.34
2023-01-11T11:40:42.270Z,95.14
2023-01-11T11:41:42.311Z,95.03
2023-01-11T11:42:42.149Z,95.03
2023-01-11T11:43:42.140Z,95.14
2023-01-11T11:44:42.152Z,95.03
2023-01-11T11:45:42.179Z,95.03
2023-01-11T11:46:42.112Z,94.93
2023-01-11T11:47:42.129Z,94.93
2023-01-11T11:48:42.321Z,94.83
2023-01-11T11:49:42.450Z,94.83
2023-01-11T11:50:45.475Z,95.03
2023-01-11T11:51:42.063Z,94.93
2023-01-11T11:52:42.014Z,94.83
2023-01-11T11:53:42.070Z,94.62
2023-01-11T11:54:42.035Z,94.83
2023-01-11T11:55:41.976Z,94.73
2023-01-11T11:56:42.054Z,94.83
2023-01-11T11:57:41.987Z,94.83
2023-01-11T11:58:41.986Z,95.03
2023-01-11T11:59:41.922Z,95.14
2023-01-11T12:00:41.958Z,94.83
2023-01-11T12:01:41.944Z,95.14
2023-01-11T12:02:41.938Z,95.14
2023-01-11T12:03:41.865Z,95.03
2023-01-11T12:04:41.848Z,95.14
2023-01-11T12:05:41.845Z,95.44
2023-01-11T12:06:41.876Z,95.44
2023-01-11T12:07:53.840Z,95.65
2023-01-11T12:08:42.815Z,95.65
2023-01-11T12:09:41.780Z,95.65
2023-01-11T12:10:41.794Z,95.86
2023-01-11T12:11:41.771Z,96.37
2023-01-11T12:12:41.750Z,96.78
2023-01-11T12:13:41.746Z,97.03
2023-01-11T12:14:41.719Z,97.64
2023-01-11T12:15:41.743Z,98.16
2023-01-11T12:16:41.758Z,98.46
2023-01-11T12:17:41.716Z,98.67
2023-01-11T12:18:41.691Z,98.97
2023-01-11T12:19:41.649Z,99.33
2023-01-11T12:20:41.689Z,99.33
2023-01-11T12:21:41.660Z,99.54
2023-01-11T12:22:41.634Z,99.74
2023-01-11T12:23:42.836Z,99.74
2023-01-11T12:24:41.634Z,99.84
2023-01-11T12:25:41.569Z,99.84
2023-01-11T12:26:41.666Z,99.84
2023-01-11T12:27:41.614Z,99.99
2023-01-11T12:28:41.544Z,99.99
2023-01-11T12:29:41.556Z,99.99
2023-01-11T12:30:41.542Z,99.99
2023-01-11T12:31:42.585Z,99.99
2023-01-11T12:32:41.522Z,99.99
2023-01-11T12:33:41.989Z,99.99
2023-01-11T12:34:41.495Z,99.99
2023-01-11T12:35:41.448Z,99.99
2023-01-11T12:36:41.434Z,99.99
2023-01-11T12:37:41.441Z,99.99
2023-01-11T12:38:41.426Z,99.99
2023-01-11T12:39:41.461Z,99.99
2023-01-11T12:40:41.397Z,99.99
2023-01-11T12:41:41.370Z,99.99
2023-01-11T12:42:41.346Z,99.99
2023-01-11T12:43:41.352Z,99.99
2023-01-11T12:44:41.372Z,99.99
2023-01-11T12:45:41.502Z,99.99
2023-01-11T12:46:41.337Z,99.99
2023-01-11T12:47:44.048Z,99.99
2023-01-11T12:48:41.311Z,99.99
2023-01-11T12:49:41.296Z,99.99
2023-01-11T12:50:41.315Z,99.99
2023-01-11T12:51:41.256Z,99.99
2023-01-11T12:52:41.232Z,99.99
2023-01-11T12:53:42.169Z,99.99
2023-01-11T12:54:41.181Z,99.99
2023-01-11T12:55:41.240Z,99.99
2023-01-11T12:56:41.156Z,99.99
2023-01-11T12:57:41.878Z,99.99
2023-01-11T12:58:41.177Z,99.99